TimeEEST,TemperatureF,Dew PointF,Humidity,Sea Level PressureIn,VisibilityMPH,Wind Direction,Wind SpeedMPH,Gust SpeedMPH,PrecipitationIn,Events,Conditions,WindDirDegrees,DateUTC
12:20 AM,73.4,59.0,61,30.09,-9999.0,NE,12.7,-,N/A,,Clear,50,2012-09-01 21:20:00
12:50 AM,73.4,59.0,61,30.12,-9999.0,NE,11.5,-,N/A,,Clear,50,2012-09-01 21:50:00
1:20 AM,73.4,59.0,61,30.12,-9999.0,NE,12.7,-,N/A,,Clear,50,2012-09-01 22:20:00
1:50 AM,73.4,59.0,61,30.12,-9999.0,NE,10.4,-,N/A,,Clear,50,2012-09-01 22:50:00
2:20 AM,73.4,59.0,61,30.12,-9999.0,NE,10.4,-,N/A,,Clear,50,2012-09-01 23:20:00
2:50 AM,71.6,59.0,64,30.12,-9999.0,NE,9.2,-,N/A,,Clear,40,2012-09-01 23:50:00
3:00 AM,72,58,52,30.13,6,NE,9.2,,,,,40,2012-09-02 00:00:00
3:20 AM,71.6,59.0,64,30.12,-9999.0,NE,12.7,-,N/A,,Clear,40,2012-09-02 00:20:00
3:50 AM,71.6,59.0,64,30.12,-9999.0,NE,16.1,-,N/A,,Clear,40,2012-09-02 00:50:00
4:20 AM,71.6,59.0,64,30.12,-9999.0,NE,11.5,-,N/A,,Clear,40,2012-09-02 01:20:00
4:50 AM,71.6,59.0,64,30.12,-9999.0,NE,11.5,-,N/A,,Clear,50,2012-09-02 01:50:00
5:20 AM,71.6,59.0,64,30.12,-9999.0,NE,11.5,-,N/A,,Clear,40,2012-09-02 02:20:00
5:50 AM,71.6,59.0,64,30.12,-9999.0,NE,10.4,-,N/A,,Clear,40,2012-09-02 02:50:00
6:20 AM,71.6,59.0,64,30.12,-9999.0,NE,15.0,-,N/A,,Clear,40,2012-09-02 03:20:00
6:50 AM,71.6,59.0,64,30.12,6.2,NE,13.8,-,N/A,,Partly Cloudy,40,2012-09-02 03:50:00
7:20 AM,71.6,59.0,64,30.12,6.2,NE,10.4,-,N/A,,Partly Cloudy,40,2012-09-02 04:20:00
7:50 AM,73.4,59.0,61,30.12,6.2,NE,12.7,-,N/A,,Scattered Clouds,50,2012-09-02 04:50:00
8:20 AM,73.4,59.0,61,30.12,6.2,NE,13.8,-,N/A,,Scattered Clouds,50,2012-09-02 05:20:00
8:50 AM,75.2,59.0,57,30.15,6.2,NE,15.0,-,N/A,,Scattered Clouds,40,2012-09-02 05:50:00
9:00 AM,75,58,46,30.15,6,NE,15.0,,,,Partly Cloudy,40,2012-09-02 06:00:00
9:20 AM,77.0,57.2,50,30.15,6.2,NE,13.8,25.3,N/A,,Scattered Clouds,50,2012-09-02 06:20:00
9:50 AM,75.2,59.0,57,30.15,6.2,NE,13.8,-,N/A,,Scattered Clouds,40,2012-09-02 06:50:00
10:20 AM,77.0,57.2,50,30.15,6.2,NE,15.0,-,N/A,,Scattered Clouds,50,2012-09-02 07:20:00
10:50 AM,78.8,55.4,44,30.15,6.2,NE,15.0,-,N/A,,Scattered Clouds,50,2012-09-02 07:50:00
11:20 AM,78.8,57.2,47,30.15,6.2,NE,15.0,-,N/A,,Scattered Clouds,50,2012-09-02 08:20:00
11:50 AM,78.8,59.0,51,30.15,6.2,NE,15.0,-,N/A,,Scattered Clouds,40,2012-09-02 08:50:00
12:20 PM,78.8,57.2,47,30.15,6.2,NE,16.1,-,N/A,,Scattered Clouds,50,2012-09-02 09:20:00
12:50 PM,80.6,59.0,48,30.15,6.2,NE,16.1,-,N/A,,Scattered Clouds,50,2012-09-02 09:50:00
1:20 PM,80.6,60.8,51,30.15,6.2,NE,15.0,-,N/A,,Scattered Clouds,50,2012-09-02 10:20:00
1:50 PM,80.6,60.8,51,30.15,6.2,NNE,16.1,-,N/A,,Scattered Clouds,30,2012-09-02 10:50:00
2:20 PM,80.6,60.8,51,30.15,6.2,NNE,17.3,-,N/A,,Scattered Clouds,20,2012-09-02 11:20:00
2:50 PM,78.8,60.8,54,30.15,6.2,NNE,20.7,-,N/A,,Scattered Clouds,20,2012-09-02 11:50:00
3:00 PM,78,61,47,30.15,6,NNE,20.7,,,,Partly Cloudy,20,2012-09-02 12:00:00
3:20 PM,78.8,60.8,54,30.12,6.2,NNE,20.7,-,N/A,,Scattered Clouds,20,2012-09-02 12:20:00
3:50 PM,80.6,60.8,51,30.12,6.2,NNE,17.3,-,N/A,,Scattered Clouds,30,2012-09-02 12:50:00
4:20 PM,78.8,60.8,54,30.12,6.2,NE,16.1,-,N/A,,Scattered Clouds,40,2012-09-02 13:20:00
4:50 PM,77.0,60.8,57,30.12,6.2,NNE,19.6,-,N/A,,Scattered Clouds,20,2012-09-02 13:50:00
5:20 PM,78.8,59.0,51,30.12,6.2,NNE,17.3,-,N/A,,Scattered Clouds,30,2012-09-02 14:20:00
5:50 PM,77.0,59.0,54,30.12,6.2,NE,17.3,-,N/A,,Scattered Clouds,50,2012-09-02 14:50:00
6:20 PM,77.0,59.0,54,30.12,6.2,NE,18.4,-,N/A,,Scattered Clouds,50,2012-09-02 15:20:00
6:50 PM,75.2,59.0,57,30.12,6.2,NE,20.7,-,N/A,,Scattered Clouds,40,2012-09-02 15:50:00
7:20 PM,75.2,59.0,57,30.12,6.2,NE,18.4,-,N/A,,Scattered Clouds,40,2012-09-02 16:20:00
7:50 PM,75.2,59.0,57,30.12,6.2,NE,17.3,-,N/A,,Scattered Clouds,40,2012-09-02 16:50:00
8:20 PM,75.2,59.0,57,30.12,6.2,NE,15.0,-,N/A,,Scattered Clouds,50,2012-09-02 17:20:00
8:50 PM,73.4,59.0,61,30.15,6.2,NE,13.8,-,N/A,,Scattered Clouds,50,2012-09-02 17:50:00
9:00 PM,74,59,49,30.15,6,NE,13.8,,,,Partly Cloudy,50,2012-09-02 18:00:00
9:20 PM,73.4,59.0,61,30.15,6.2,NE,13.8,-,N/A,,Partly Cloudy,40,2012-09-02 18:20:00
9:50 PM,73.4,57.2,57,30.15,6.2,NE,12.7,-,N/A,,Partly Cloudy,50,2012-09-02 18:50:00
10:20 PM,73.4,57.2,57,30.12,6.2,NE,11.5,-,N/A,,Partly Cloudy,50,2012-09-02 19:20:00
10:50 PM,73.4,57.2,57,30.15,6.2,NE,11.5,-,N/A,,Partly Cloudy,50,2012-09-02 19:50:00
11:20 PM,73.4,57.2,57,30.12,6.2,NE,12.7,-,N/A,,Partly Cloudy,50,2012-09-02 20:20:00
11:50 PM,71.6,57.2,60,30.12,6.2,NE,13.8,-,N/A,,Partly Cloudy,50,2012-09-02 20:50:00